sensor_id;sensor_type;location;lat;lon;timestamp;pressure;altitude;pressure_sealevel;temperature;humidity
40490;BME280;26196;52.302;10.572;2023-01-25T00:02:11;102839.53;;;9.35;52.51
40490;BME280;26196;52.302;10.572;2023-01-25T00:06:46;102833.47;;;9.36;53.28
40490;BME280;26196;52.302;10.572;2023-01-25T00:10:50;102818.59;;;9.31;53.35
40490;BME280;26196;52.302;10.572;2023-01-25T00:14:51;102819.47;;;9.33;52.72
40490;BME280;26196;52.302;10.572;2023-01-25T00:19:25;102827.31;;;9.31;52.45
40490;BME280;26196;52.302;10.572;2023-01-25T00:23:25;102821.19;;;9.31;53.12
40490;BME280;26196;52.302;10.572;2023-01-25T00:27:26;102809.00;;;9.31;52.94
40490;BME280;26196;52.302;10.572;2023-01-25T00:40:04;102801.13;;;9.30;52.96
40490;BME280;26196;52.302;10.572;2023-01-25T00:44:05;102807.25;;;9.32;52.55
40490;BME280;26196;52.302;10.572;2023-01-25T00:48:05;102805.53;;;9.31;52.06
40490;BME280;26196;52.302;10.572;2023-01-25T00:52:07;102804.66;;;9.32;53.19
40490;BME280;26196;52.302;10.572;2023-01-25T00:56:07;102790.72;;;9.33;52.96
40490;BME280;26196;52.302;10.572;2023-01-25T01:00:08;102786.34;;;9.32;52.34
40490;BME280;26196;52.302;10.572;2023-01-25T01:04:08;102782.88;;;9.31;52.66
40490;BME280;26196;52.302;10.572;2023-01-25T01:08:09;102775.88;;;9.29;52.45
40490;BME280;26196;52.302;10.572;2023-01-25T01:12:10;102789.84;;;9.31;52.41
40490;BME280;26196;52.302;10.572;2023-01-25T01:16:11;102778.47;;;9.30;52.47
40490;BME280;26196;52.302;10.572;2023-01-25T01:20:12;102775.00;;;9.30;52.55
40490;BME280;26196;52.302;10.572;2023-01-25T01:24:12;102774.13;;;9.29;52.44
40490;BME280;26196;52.302;10.572;2023-01-25T01:28:13;102762.78;;;9.29;52.21
40490;BME280;26196;52.302;10.572;2023-01-25T01:32:13;102761.03;;;9.28;52.53
40490;BME280;26196;52.302;10.572;2023-01-25T01:36:15;102757.56;;;9.29;52.60
40490;BME280;26196;52.302;10.572;2023-01-25T01:40:15;102752.34;;;9.29;52.60
40490;BME280;26196;52.302;10.572;2023-01-25T01:44:19;102741.84;;;9.27;52.49
40490;BME280;26196;52.302;10.572;2023-01-25T01:52:39;102731.41;;;9.27;52.24
40490;BME280;26196;52.302;10.572;2023-01-25T02:01:11;102725.28;;;9.24;52.52
40490;BME280;26196;52.302;10.572;2023-01-25T02:05:18;102714.81;;;9.24;52.74
40490;BME280;26196;52.302;10.572;2023-01-25T02:09:50;102711.34;;;9.25;52.47
40490;BME280;26196;52.302;10.572;2023-01-25T02:13:52;102719.19;;;9.26;52.33
40490;BME280;26196;52.302;10.572;2023-01-25T02:17:53;102713.94;;;9.25;52.11
40490;BME280;26196;52.302;10.572;2023-01-25T02:21:55;102719.09;;;9.20;53.08
40490;BME280;26196;52.302;10.572;2023-01-25T02:25:59;102706.00;;;9.17;52.21
40490;BME280;26196;52.302;10.572;2023-01-25T02:30:32;102715.66;;;9.21;52.75
40490;BME280;26196;52.302;10.572;2023-01-25T02:34:33;102712.09;;;9.17;52.31
40490;BME280;26196;52.302;10.572;2023-01-25T02:38:41;102715.53;;;9.13;52.67
40490;BME280;26196;52.302;10.572;2023-01-25T02:42:45;102718.16;;;9.13;52.41
40490;BME280;26196;52.302;10.572;2023-01-25T02:46:46;102702.50;;;9.16;52.05
40490;BME280;26196;52.302;10.572;2023-01-25T02:50:47;102707.69;;;9.15;52.74
40490;BME280;26196;52.302;10.572;2023-01-25T02:55:24;102712.03;;;9.10;52.96
40490;BME280;26196;52.302;10.572;2023-01-25T02:59:24;102703.34;;;9.14;53.16
40490;BME280;26196;52.302;10.572;2023-01-25T03:03:24;102699.88;;;9.15;53.20
40490;BME280;26196;52.302;10.572;2023-01-25T03:07:25;102696.41;;;9.17;52.53
40490;BME280;26196;52.302;10.572;2023-01-25T03:12:02;102699.00;;;9.14;53.33
40490;BME280;26196;52.302;10.572;2023-01-25T03:16:06;102692.94;;;9.17;53.29
40490;BME280;26196;52.302;10.572;2023-01-25T03:20:08;102684.19;;;9.13;53.07
40490;BME280;26196;52.302;10.572;2023-01-25T03:24:09;102682.41;;;9.12;53.16
40490;BME280;26196;52.302;10.572;2023-01-25T03:28:10;102684.19;;;9.13;53.07
40490;BME280;26196;52.302;10.572;2023-01-25T03:32:47;102683.28;;;9.11;52.58
40490;BME280;26196;52.302;10.572;2023-01-25T03:36:49;102674.53;;;9.09;52.86
40490;BME280;26196;52.302;10.572;2023-01-25T03:40:50;102677.19;;;9.12;53.25
40490;BME280;26196;52.302;10.572;2023-01-25T03:44:50;102674.59;;;9.14;53.15
40490;BME280;26196;52.302;10.572;2023-01-25T03:48:51;102677.25;;;9.15;52.86
40490;BME280;26196;52.302;10.572;2023-01-25T03:52:56;102669.41;;;9.15;52.40
40490;BME280;26196;52.302;10.572;2023-01-25T03:57:29;102658.06;;;9.15;53.13
40490;BME280;26196;52.302;10.572;2023-01-25T04:01:29;102649.38;;;9.16;53.14
40490;BME280;26196;52.302;10.572;2023-01-25T04:05:29;102638.00;;;9.11;52.59
40490;BME280;26196;52.302;10.572;2023-01-25T04:09:30;102641.47;;;9.11;53.58
40490;BME280;26196;52.302;10.572;2023-01-25T04:13:31;102634.53;;;9.13;53.47
40490;BME280;26196;52.302;10.572;2023-01-25T04:17:34;102634.50;;;9.10;53.02
40490;BME280;26196;52.302;10.572;2023-01-25T04:22:11;102631.06;;;9.14;52.88
40490;BME280;26196;52.302;10.572;2023-01-25T04:26:12;102627.63;;;9.15;52.56
40490;BME280;26196;52.302;10.572;2023-01-25T04:30:13;102622.34;;;9.14;53.47
40490;BME280;26196;52.302;10.572;2023-01-25T04:34:51;102620.63;;;9.14;53.14
40490;BME280;26196;52.302;10.572;2023-01-25T04:38:51;102613.69;;;9.16;53.75
40490;BME280;26196;52.302;10.572;2023-01-25T04:42:51;102610.19;;;9.17;53.20
40490;BME280;26196;52.302;10.572;2023-01-25T04:46:52;102611.03;;;9.15;53.32
40490;BME280;26196;52.302;10.572;2023-01-25T04:51:26;102585.69;;;9.06;53.75
40490;BME280;26196;52.302;10.572;2023-01-25T04:56:03;102601.53;;;9.18;53.14
40490;BME280;26196;52.302;10.572;2023-01-25T05:00:04;102604.13;;;9.18;54.04
40490;BME280;26196;52.302;10.572;2023-01-25T05:04:05;102598.06;;;9.21;53.73
40490;BME280;26196;52.302;10.572;2023-01-25T05:08:42;102587.59;;;9.19;53.75
40490;BME280;26196;52.302;10.572;2023-01-25T05:13:20;102591.97;;;9.20;53.50
40490;BME280;26196;52.302;10.572;2023-01-25T05:17:21;102583.28;;;9.23;53.61
40490;BME280;26196;52.302;10.572;2023-01-25T05:21:21;102578.06;;;9.23;53.55
40490;BME280;26196;52.302;10.572;2023-01-25T05:25:42;102565.00;;;9.25;53.42
40490;BME280;26196;52.302;10.572;2023-01-25T05:30:01;102565.88;;;9.25;53.67
40490;BME280;26196;52.302;10.572;2023-01-25T05:34:35;102574.59;;;9.26;53.90
40490;BME280;26196;52.302;10.572;2023-01-25T05:39:10;102569.34;;;9.24;53.88
40490;BME280;26196;52.302;10.572;2023-01-25T05:43:10;102566.78;;;9.26;53.11
40490;BME280;26196;52.302;10.572;2023-01-25T05:47:12;102570.22;;;9.25;53.99
40490;BME280;26196;52.302;10.572;2023-01-25T05:51:47;102572.88;;;9.26;53.81
40490;BME280;26196;52.302;10.572;2023-01-25T05:55:48;102564.16;;;9.26;53.55
40490;BME280;26196;52.302;10.572;2023-01-25T05:59:48;102565.03;;;9.28;53.99
40490;BME280;26196;52.302;10.572;2023-01-25T06:03:48;102560.69;;;9.28;53.21
40490;BME280;26196;52.302;10.572;2023-01-25T06:07:49;102551.97;;;9.28;53.61
40490;BME280;26196;52.302;10.572;2023-01-25T06:11:49;102543.25;;;9.27;53.39
40490;BME280;26196;52.302;10.572;2023-01-25T06:20:27;102544.16;;;9.29;53.52
40490;BME280;26196;52.302;10.572;2023-01-25T06:24:27;102546.75;;;9.29;53.76
40490;BME280;26196;52.302;10.572;2023-01-25T06:28:29;102545.88;;;9.29;53.26
40490;BME280;26196;52.302;10.572;2023-01-25T06:32:31;102548.50;;;9.29;53.16
40490;BME280;26196;52.302;10.572;2023-01-25T06:36:32;102542.38;;;9.27;52.95
40490;BME280;26196;52.302;10.572;2023-01-25T06:40:32;102547.59;;;9.27;52.67
40490;BME280;26196;52.302;10.572;2023-01-25T06:44:33;102553.69;;;9.26;53.03
40490;BME280;26196;52.302;10.572;2023-01-25T06:49:09;102551.13;;;9.29;53.13
40490;BME280;26196;52.302;10.572;2023-01-25T06:53:09;102555.47;;;9.30;53.39
40490;BME280;26196;52.302;10.572;2023-01-25T06:57:10;102548.50;;;9.29;53.47
40490;BME280;26196;52.302;10.572;2023-01-25T07:01:19;102544.13;;;9.28;52.85
40490;BME280;26196;52.302;10.572;2023-01-25T07:05:20;102538.91;;;9.28;53.48
40490;BME280;26196;52.302;10.572;2023-01-25T07:09:20;102537.19;;;9.30;53.40
40490;BME280;26196;52.302;10.572;2023-01-25T07:13:24;102531.97;;;9.28;53.04
40490;BME280;26196;52.302;10.572;2023-01-25T07:17:25;102533.66;;;9.28;53.63
40490;BME280;26196;52.302;10.572;2023-01-25T07:22:02;102536.28;;;9.28;52.72
40490;BME280;26196;52.302;10.572;2023-01-25T07:26:03;102535.44;;;9.30;52.83
40490;BME280;26196;52.302;10.572;2023-01-25T07:30:04;102531.94;;;9.30;52.34
40490;BME280;26196;52.302;10.572;2023-01-25T07:34:39;102530.22;;;9.29;53.18
40490;BME280;26196;52.302;10.572;2023-01-25T07:38:40;102529.34;;;9.30;52.55
40490;BME280;26196;52.302;10.572;2023-01-25T07:42:40;102511.03;;;9.27;52.46
40490;BME280;26196;52.302;10.572;2023-01-25T07:46:41;102513.66;;;9.28;52.34
40490;BME280;26196;52.302;10.572;2023-01-25T07:50:43;102516.28;;;9.30;51.77
40490;BME280;26196;52.302;10.572;2023-01-25T07:55:20;102515.38;;;9.28;51.99
40490;BME280;26196;52.302;10.572;2023-01-25T07:59:21;102512.75;;;9.28;52.33
40490;BME280;26196;52.302;10.572;2023-01-25T08:03:21;102508.44;;;9.28;52.10
40490;BME280;26196;52.302;10.572;2023-01-25T08:07:22;102505.78;;;9.27;51.98
40490;BME280;26196;52.302;10.572;2023-01-25T08:11:25;102515.38;;;9.26;52.10
40490;BME280;26196;52.302;10.572;2023-01-25T08:15:26;102519.72;;;9.27;52.27
40490;BME280;26196;52.302;10.572;2023-01-25T08:20:00;102490.00;;;9.16;52.05
40490;BME280;26196;52.302;10.572;2023-01-25T08:24:03;102506.66;;;9.26;52.07
40490;BME280;26196;52.302;10.572;2023-01-25T08:28:04;102502.28;;;9.25;51.62
40490;BME280;26196;52.302;10.572;2023-01-25T08:32:05;102508.38;;;9.25;52.07
40490;BME280;26196;52.302;10.572;2023-01-25T08:36:08;102509.28;;;9.26;52.16
40490;BME280;26196;52.302;10.572;2023-01-25T08:40:42;102502.28;;;9.25;51.82
40490;BME280;26196;52.302;10.572;2023-01-25T08:44:44;102494.44;;;9.25;51.67
40490;BME280;26196;52.302;10.572;2023-01-25T08:48:44;102495.31;;;9.25;52.33
40490;BME280;26196;52.302;10.572;2023-01-25T08:52:45;102487.47;;;9.25;52.21
40490;BME280;26196;52.302;10.572;2023-01-25T08:57:19;102483.09;;;9.23;51.71
40490;BME280;26196;52.302;10.572;2023-01-25T09:01:20;102469.16;;;9.20;51.70
40490;BME280;26196;52.302;10.572;2023-01-25T09:05:20;102453.41;;;9.14;51.59
40490;BME280;26196;52.302;10.572;2023-01-25T09:09:20;102463.03;;;9.20;51.86
40490;BME280;26196;52.302;10.572;2023-01-25T09:13:24;102464.84;;;9.26;51.87
40490;BME280;26196;52.302;10.572;2023-01-25T09:17:58;102457.88;;;9.23;52.13
40490;BME280;26196;52.302;10.572;2023-01-25T09:21:58;102461.34;;;9.24;51.76
40490;BME280;26196;52.302;10.572;2023-01-25T09:25:59;102460.47;;;9.25;51.71
40490;BME280;26196;52.302;10.572;2023-01-25T09:30:00;102459.63;;;9.27;52.42
40490;BME280;26196;52.302;10.572;2023-01-25T09:34:35;102463.13;;;9.26;51.93
40490;BME280;26196;52.302;10.572;2023-01-25T09:38:36;102455.22;;;9.22;52.05
40490;BME280;26196;52.302;10.572;2023-01-25T09:46:57;102450.00;;;9.22;51.96
40490;BME280;26196;52.302;10.572;2023-01-25T09:51:25;102450.00;;;9.22;52.33
40490;BME280;26196;52.302;10.572;2023-01-25T09:55:49;102427.31;;;9.17;52.53
40490;BME280;26196;52.302;10.572;2023-01-25T09:59:51;102427.31;;;9.17;52.34
40490;BME280;26196;52.302;10.572;2023-01-25T10:03:56;102416.84;;;9.17;52.07
40490;BME280;26196;52.302;10.572;2023-01-25T10:12:53;102400.31;;;9.17;51.80
40490;BME280;26196;52.302;10.572;2023-01-25T10:17:05;102390.72;;;9.17;51.99
40490;BME280;26196;52.302;10.572;2023-01-25T10:21:20;102386.41;;;9.19;52.01
40490;BME280;26196;52.302;10.572;2023-01-25T10:25:28;102389.03;;;9.21;52.11
40490;BME280;26196;52.302;10.572;2023-01-25T10:29:58;102383.78;;;9.19;52.12
40490;BME280;26196;52.302;10.572;2023-01-25T10:34:01;102366.34;;;9.15;52.21
40490;BME280;26196;52.302;10.572;2023-01-25T10:38:40;102360.28;;;9.19;52.27
40490;BME280;26196;52.302;10.572;2023-01-25T10:43:02;102355.03;;;9.16;52.47
40490;BME280;26196;52.302;10.572;2023-01-25T10:47:38;102356.81;;;9.20;52.06
40490;BME280;26196;52.302;10.572;2023-01-25T10:51:42;102338.47;;;9.17;52.05
40490;BME280;26196;52.302;10.572;2023-01-25T10:55:58;102345.44;;;9.15;52.19
40490;BME280;26196;52.302;10.572;2023-01-25T11:00:02;102328.03;;;9.17;52.49
40490;BME280;26196;52.302;10.572;2023-01-25T11:04:22;102317.56;;;9.17;52.62
40490;BME280;26196;52.302;10.572;2023-01-25T11:08:24;102309.72;;;9.17;52.53
40490;BME280;26196;52.302;10.572;2023-01-25T11:31:57;102276.69;;;9.21;51.85
40490;BME280;26196;52.302;10.572;2023-01-25T11:40:16;102265.34;;;9.19;51.66
40490;BME280;26196;52.302;10.572;2023-01-25T11:44:52;102251.44;;;9.22;51.90
40490;BME280;26196;52.302;10.572;2023-01-25T11:49:04;102239.25;;;9.20;51.80
40490;BME280;26196;52.302;10.572;2023-01-25T12:02:11;102220.06;;;9.22;52.32
40490;BME280;26196;52.302;10.572;2023-01-25T12:06:43;102213.97;;;9.19;52.26
40490;BME280;26196;52.302;10.572;2023-01-25T12:11:22;102208.75;;;9.23;52.15
40490;BME280;26196;52.302;10.572;2023-01-25T12:15:54;102201.81;;;9.23;51.94
40490;BME280;26196;52.302;10.572;2023-01-25T12:28:46;102163.47;;;9.24;51.98
40490;BME280;26196;52.302;10.572;2023-01-25T12:33:21;102153.03;;;9.24;52.32
40490;BME280;26196;52.302;10.572;2023-01-25T12:37:31;102133.88;;;9.23;52.56
40490;BME280;26196;52.302;10.572;2023-01-25T12:46:27;102126.88;;;9.22;52.83
40490;BME280;26196;52.302;10.572;2023-01-25T12:50:55;102113.84;;;9.20;52.70
40490;BME280;26196;52.302;10.572;2023-01-25T12:55:00;102099.03;;;9.24;52.54
40490;BME280;26196;52.302;10.572;2023-01-25T12:59:39;102085.94;;;9.23;52.38
40490;BME280;26196;52.302;10.572;2023-01-25T13:12:24;102082.47;;;9.24;52.31
40490;BME280;26196;52.302;10.572;2023-01-25T13:21:49;102078.09;;;9.19;52.13
40490;BME280;26196;52.302;10.572;2023-01-25T13:25:51;102066.75;;;9.17;52.44
40490;BME280;26196;52.302;10.572;2023-01-25T13:35:23;102053.72;;;9.22;51.93
40490;BME280;26196;52.302;10.572;2023-01-25T13:48:15;102035.41;;;9.17;51.76
40490;BME280;26196;52.302;10.572;2023-01-25T13:52:47;102037.19;;;9.23;51.85
40490;BME280;26196;52.302;10.572;2023-01-25T13:57:20;102026.75;;;9.25;51.60
40490;BME280;26196;52.302;10.572;2023-01-25T14:01:56;102016.28;;;9.25;51.97
40490;BME280;26196;52.302;10.572;2023-01-25T14:06:33;102025.88;;;9.24;52.29
40490;BME280;26196;52.302;10.572;2023-01-25T14:11:09;102026.75;;;9.23;51.45
40490;BME280;26196;52.302;10.572;2023-01-25T14:24:21;102014.59;;;9.36;51.50
40490;BME280;26196;52.302;10.572;2023-01-25T14:28:21;102004.09;;;9.30;51.52
40490;BME280;26196;52.302;10.572;2023-01-25T14:32:59;101997.16;;;9.29;51.28
40490;BME280;26196;52.302;10.572;2023-01-25T14:37:35;101984.94;;;9.25;52.23
40490;BME280;26196;52.302;10.572;2023-01-25T14:46:28;101980.59;;;9.24;51.86
40490;BME280;26196;52.302;10.572;2023-01-25T14:51:00;101974.47;;;9.25;52.21
40490;BME280;26196;52.302;10.572;2023-01-25T14:55:29;101965.75;;;9.23;51.69
40490;BME280;26196;52.302;10.572;2023-01-25T15:14:01;101961.41;;;9.28;52.06
40490;BME280;26196;52.302;10.572;2023-01-25T15:27:54;101934.44;;;9.41;52.44
40490;BME280;26196;52.302;10.572;2023-01-25T15:46:10;101922.25;;;9.40;52.87
40490;BME280;26196;52.302;10.572;2023-01-25T15:50:41;101924.84;;;9.40;52.63
40490;BME280;26196;52.302;10.572;2023-01-25T15:55:16;101925.75;;;9.42;52.04
40490;BME280;26196;52.302;10.572;2023-01-25T15:59:53;101926.63;;;9.44;51.88
40490;BME280;26196;52.302;10.572;2023-01-25T16:03:56;101917.03;;;9.41;52.39
40490;BME280;26196;52.302;10.572;2023-01-25T16:07:57;101917.00;;;9.40;52.15
40490;BME280;26196;52.302;10.572;2023-01-25T16:12:31;101915.25;;;9.43;52.60
40490;BME280;26196;52.302;10.572;2023-01-25T16:17:14;101914.41;;;9.45;51.59
40490;BME280;26196;52.302;10.572;2023-01-25T16:21:46;101906.56;;;9.46;52.25
40490;BME280;26196;52.302;10.572;2023-01-25T16:26:22;101903.09;;;9.47;51.89
40490;BME280;26196;52.302;10.572;2023-01-25T16:30:57;101908.31;;;9.50;52.11
40490;BME280;26196;52.302;10.572;2023-01-25T16:35:32;101905.69;;;9.53;51.45
40490;BME280;26196;52.302;10.572;2023-01-25T16:39:32;101875.19;;;9.46;51.22
40490;BME280;26196;52.302;10.572;2023-01-25T16:43:32;101870.00;;;9.49;51.41
40490;BME280;26196;52.302;10.572;2023-01-25T16:48:07;101887.41;;;9.55;51.50
40490;BME280;26196;52.302;10.572;2023-01-25T16:52:42;101869.09;;;9.50;52.16
40490;BME280;26196;52.302;10.572;2023-01-25T16:57:18;101867.34;;;9.46;51.51
40490;BME280;26196;52.302;10.572;2023-01-25T17:10:34;101849.94;;;9.43;51.22
40490;BME280;26196;52.302;10.572;2023-01-25T17:15:09;101846.44;;;9.43;51.02
40490;BME280;26196;52.302;10.572;2023-01-25T17:19:47;101847.31;;;9.43;51.52
40490;BME280;26196;52.302;10.572;2023-01-25T17:28:45;101836.84;;;9.43;51.73
40490;BME280;26196;52.302;10.572;2023-01-25T17:33:20;101838.59;;;9.43;51.32
40490;BME280;26196;52.302;10.572;2023-01-25T17:37:20;101838.63;;;9.40;51.77
40490;BME280;26196;52.302;10.572;2023-01-25T17:45:36;101817.72;;;9.34;51.33
40490;BME280;26196;52.302;10.572;2023-01-25T17:49:40;101822.09;;;9.36;51.05
40490;BME280;26196;52.302;10.572;2023-01-25T17:53:40;101810.75;;;9.42;51.29
40490;BME280;26196;52.302;10.572;2023-01-25T18:26:46;101772.41;;;9.44;49.84
40490;BME280;26196;52.302;10.572;2023-01-25T18:30:51;101767.19;;;9.44;51.26
40490;BME280;26196;52.302;10.572;2023-01-25T18:35:26;101768.94;;;9.42;50.91
40490;BME280;26196;52.302;10.572;2023-01-25T18:39:27;101761.09;;;9.39;49.60
40490;BME280;26196;52.302;10.572;2023-01-25T18:48:05;101763.72;;;9.33;50.11
40490;BME280;26196;52.302;10.572;2023-01-25T18:52:05;101756.75;;;9.32;50.33
40490;BME280;26196;52.302;10.572;2023-01-25T18:56:42;101759.34;;;9.39;50.39
40490;BME280;26196;52.302;10.572;2023-01-25T19:00:43;101749.75;;;9.45;51.01
40490;BME280;26196;52.302;10.572;2023-01-25T19:04:43;101754.09;;;9.49;50.37
40490;BME280;26196;52.302;10.572;2023-01-25T19:08:45;101746.28;;;9.44;50.37
40490;BME280;26196;52.302;10.572;2023-01-25T19:12:48;101737.56;;;9.47;50.54
40490;BME280;26196;52.302;10.572;2023-01-25T19:16:49;101738.44;;;9.41;50.18
40490;BME280;26196;52.302;10.572;2023-01-25T19:20:49;101733.22;;;9.39;50.30
40490;BME280;26196;52.302;10.572;2023-01-25T19:24:50;101731.47;;;9.43;51.22
40490;BME280;26196;52.302;10.572;2023-01-25T19:28:51;101727.97;;;9.46;50.50
40490;BME280;26196;52.302;10.572;2023-01-25T19:33:25;101727.97;;;9.50;50.65
40490;BME280;26196;52.302;10.572;2023-01-25T19:37:26;101730.56;;;9.50;50.00
40490;BME280;26196;52.302;10.572;2023-01-25T19:41:28;101721.88;;;9.50;50.27
40490;BME280;26196;52.302;10.572;2023-01-25T19:45:28;101707.03;;;9.49;50.70
40490;BME280;26196;52.302;10.572;2023-01-25T19:49:28;101702.69;;;9.52;50.62
40490;BME280;26196;52.302;10.572;2023-01-25T19:54:04;101699.19;;;9.53;50.08
40490;BME280;26196;52.302;10.572;2023-01-25T19:58:05;101687.88;;;9.51;49.90
40490;BME280;26196;52.302;10.572;2023-01-25T20:02:41;101682.69;;;9.47;49.98
40490;BME280;26196;52.302;10.572;2023-01-25T20:06:42;101686.16;;;9.52;50.28
40490;BME280;26196;52.302;10.572;2023-01-25T20:10:43;101687.00;;;9.54;50.87
40490;BME280;26196;52.302;10.572;2023-01-25T20:15:17;101674.81;;;9.51;50.73
40490;BME280;26196;52.302;10.572;2023-01-25T20:19:18;101671.34;;;9.46;50.66
40490;BME280;26196;52.302;10.572;2023-01-25T20:23:54;101666.13;;;9.43;50.05
40490;BME280;26196;52.302;10.572;2023-01-25T20:27:57;101660.91;;;9.40;51.17
40490;BME280;26196;52.302;10.572;2023-01-25T20:32:34;101666.16;;;9.40;50.38
40490;BME280;26196;52.302;10.572;2023-01-25T20:36:35;101658.31;;;9.37;50.59
40490;BME280;26196;52.302;10.572;2023-01-25T20:40:35;101666.19;;;9.34;50.11
40490;BME280;26196;52.302;10.572;2023-01-25T20:44:35;101656.59;;;9.33;50.63
40490;BME280;26196;52.302;10.572;2023-01-25T20:48:36;101648.75;;;9.33;49.98
40490;BME280;26196;52.302;10.572;2023-01-25T20:53:10;101656.59;;;9.25;49.52
40490;BME280;26196;52.302;10.572;2023-01-25T20:57:47;101647.94;;;9.22;50.07
40490;BME280;26196;52.302;10.572;2023-01-25T21:01:47;101633.13;;;9.19;49.84
40490;BME280;26196;52.302;10.572;2023-01-25T21:06:07;101635.78;;;9.10;49.83
40490;BME280;26196;52.302;10.572;2023-01-25T21:10:46;101634.91;;;9.11;49.75
40490;BME280;26196;52.302;10.572;2023-01-25T21:14:46;101626.22;;;9.07;49.12
40490;BME280;26196;52.302;10.572;2023-01-25T21:18:53;101617.50;;;9.08;49.47
40490;BME280;26196;52.302;10.572;2023-01-25T21:22:54;101612.25;;;9.20;50.15
40490;BME280;26196;52.302;10.572;2023-01-25T21:26:54;101623.56;;;9.15;49.60
40490;BME280;26196;52.302;10.572;2023-01-25T21:30:54;101609.66;;;9.13;49.58
40490;BME280;26196;52.302;10.572;2023-01-25T21:34:55;101614.88;;;9.07;49.35
40490;BME280;26196;52.302;10.572;2023-01-25T21:39:32;101614.03;;;9.05;49.31
40490;BME280;26196;52.302;10.572;2023-01-25T21:43:33;101611.41;;;9.06;49.68
40490;BME280;26196;52.302;10.572;2023-01-25T21:47:58;101594.88;;;9.10;50.33
40490;BME280;26196;52.302;10.572;2023-01-25T21:51:59;101593.09;;;9.15;49.75
40490;BME280;26196;52.302;10.572;2023-01-25T21:56:35;101595.72;;;9.15;50.22
40490;BME280;26196;52.302;10.572;2023-01-25T22:00:35;101599.16;;;9.17;50.68
40490;BME280;26196;52.302;10.572;2023-01-25T22:09:33;101607.00;;;9.19;50.08
40490;BME280;26196;52.302;10.572;2023-01-25T22:13:33;101607.88;;;9.19;50.61
40490;BME280;26196;52.302;10.572;2023-01-25T22:17:34;101600.91;;;9.17;50.20
40490;BME280;26196;52.302;10.572;2023-01-25T22:22:08;101594.81;;;9.15;50.65
40490;BME280;26196;52.302;10.572;2023-01-25T22:26:12;101599.22;;;9.08;49.58
40490;BME280;26196;52.302;10.572;2023-01-25T22:30:12;101597.47;;;9.04;49.40
40490;BME280;26196;52.302;10.572;2023-01-25T22:38:50;101589.69;;;8.95;49.92
40490;BME280;26196;52.302;10.572;2023-01-25T22:42:50;101588.78;;;8.99;49.53
40490;BME280;26196;52.302;10.572;2023-01-25T22:46:50;101589.69;;;8.98;49.46
40490;BME280;26196;52.302;10.572;2023-01-25T22:51:27;101586.22;;;8.93;49.16
40490;BME280;26196;52.302;10.572;2023-01-25T22:55:28;101574.03;;;8.89;49.37
40490;BME280;26196;52.302;10.572;2023-01-25T22:59:28;101573.16;;;8.88;49.80
40490;BME280;26196;52.302;10.572;2023-01-25T23:04:03;101569.69;;;8.92;49.64
40490;BME280;26196;52.302;10.572;2023-01-25T23:08:03;101562.69;;;8.97;50.01
40490;BME280;26196;52.302;10.572;2023-01-25T23:12:04;101557.47;;;8.97;49.60
40490;BME280;26196;52.302;10.572;2023-01-25T23:16:38;101557.47;;;8.97;49.63
40490;BME280;26196;52.302;10.572;2023-01-25T23:20:38;101550.53;;;8.95;50.11
40490;BME280;26196;52.302;10.572;2023-01-25T23:24:39;101543.53;;;8.98;49.81
40490;BME280;26196;52.302;10.572;2023-01-25T23:28:40;101545.28;;;9.00;49.81
40490;BME280;26196;52.302;10.572;2023-01-25T23:32:40;101533.97;;;8.91;49.36
40490;BME280;26196;52.302;10.572;2023-01-25T23:36:48;101525.25;;;8.94;49.34
40490;BME280;26196;52.302;10.572;2023-01-25T23:40:49;101525.25;;;8.94;49.24
40490;BME280;26196;52.302;10.572;2023-01-25T23:44:49;101521.81;;;8.89;49.46
40490;BME280;26196;52.302;10.572;2023-01-25T23:48:51;101519.22;;;8.92;50.09
40490;BME280;26196;52.302;10.572;2023-01-25T23:52:51;101513.09;;;8.93;49.90
40490;BME280;26196;52.302;10.572;2023-01-25T23:56:52;101511.34;;;8.89;50.08
